Time;durP1;ratioP1;P1;durP2;ratioP2;P2;SDS_P1;SDS_P2;PMS_P1;PMS_P2;Temp;Humidity;BMP_temperature;BMP_pressure;BME280_temperature;BME280_humidity;BME280_pressure;Samples;Min_cycle;Max_cycle;Signal;HPM_P1;HPM_P2
2022/06/04 00:00:43;;;;;;;2.40;1.40;;;;;;;14.58;66.50;101180.92;108006;1280;72673;-82
2022/06/04 00:03:13;;;;;;;3.20;1.70;;;;;;;14.55;66.66;101184.33;108037;1280;73087;-83
2022/06/04 00:05:45;;;;;;;4.10;1.40;;;;;;;14.52;66.65;101184.15;107993;1280;61543;-84
2022/06/04 00:08:12;;;;;;;2.20;1.40;;;;;;;14.49;66.66;101187.93;107994;1279;61202;-83
2022/06/04 00:16:20;;;;;;;3.60;1.40;;;;;;;14.35;66.85;101185.15;107788;1279;72925;-83
2022/06/04 00:18:47;;;;;;;3.40;2.40;;;;;;;14.31;66.88;101188.70;108080;1279;61749;-83
2022/06/04 00:21:23;;;;;;;3.80;1.80;;;;;;;14.25;67.31;101189.88;107629;1280;59751;-84
2022/06/04 00:24:06;;;;;;;;;;;;;;;;;;;;;
2022/06/04 00:26:34;;;;;;;3.80;1.60;;;;;;;14.15;67.77;101184.17;107897;1280;71879;-85
2022/06/04 00:29:00;;;;;;;3.10;1.70;;;;;;;14.10;67.87;101181.81;107974;1280;73952;-83
2022/06/04 00:31:27;;;;;;;5.10;1.80;;;;;;;14.04;68.22;101181.95;107927;1281;61178;-84
2022/06/04 00:33:58;;;;;;;2.80;1.50;;;;;;;13.99;68.44;101184.59;107973;1279;61371;-84
2022/06/04 00:36:27;;;;;;;2.90;1.60;;;;;;;13.93;68.40;101182.53;107974;1279;77153;-83
2022/06/04 00:38:53;;;;;;;3.10;1.40;;;;;;;13.86;68.89;101178.59;108066;1279;71478;-83
2022/06/04 00:41:40;;;;;;;5.60;1.50;;;;;;;13.82;68.65;101174.16;107994;1280;74260;-83
2022/06/04 00:44:09;;;;;;;2.40;1.20;;;;;;;13.76;68.76;101168.27;107891;1280;62601;-84
2022/06/04 00:46:42;;;;;;;3.00;1.40;;;;;;;13.71;68.65;101167.63;107955;1279;60592;-83
2022/06/04 00:49:18;;;;;;;3.40;1.70;;;;;;;13.66;68.82;101165.19;107781;1279;74988;-83
2022/06/04 00:51:50;;;;;;;2.20;1.30;;;;;;;13.61;68.95;101160.65;107627;1280;71084;-84
2022/06/04 00:54:18;;;;;;;2.60;1.40;;;;;;;13.57;69.03;101155.54;108017;1278;72757;-83
2022/06/04 00:56:47;;;;;;;3.70;1.20;;;;;;;13.51;69.10;101158.63;107980;1279;62640;-83
2022/06/04 00:59:27;;;;;;;1.90;1.20;;;;;;;13.47;69.11;101163.60;107737;1281;60628;-83
2022/06/04 01:02:18;;;;;;;3.00;1.60;;;;;;;13.43;69.08;101167.11;107965;1280;74993;-85
2022/06/04 01:05:02;;;;;;;2.20;1.50;;;;;;;13.38;69.17;101168.59;107901;1281;72260;-84
2022/06/04 01:07:52;;;;;;;3.00;1.50;;;;;;;13.34;69.11;101166.02;107791;1281;72283;-84
2022/06/04 01:10:44;;;;;;;2.60;1.40;;;;;;;13.30;69.17;101167.78;107906;1280;62062;-84
2022/06/04 01:13:26;;;;;;;4.80;1.60;;;;;;;13.24;69.25;101168.52;107995;1279;61693;-84
2022/06/04 01:16:18;;;;;;;2.20;1.60;;;;;;;13.20;69.44;101172.59;108009;1280;75936;-84
2022/06/04 01:19:15;;;;;;;2.80;1.30;;;;;;;13.15;69.38;101169.22;107775;1281;72195;-85
2022/06/04 01:21:50;;;;;;;2.10;1.30;;;;;;;13.11;69.29;101177.36;108004;1279;72973;-85
2022/06/04 01:24:59;;;;;;;2.20;1.30;;;;;;;13.08;69.12;101178.48;107997;1280;65021;-84
2022/06/04 01:27:31;;;;;;;5.30;1.60;;;;;;;13.04;68.67;101175.89;107855;1279;61770;-84
2022/06/04 01:30:07;;;;;;;3.90;1.20;;;;;;;13.01;68.24;101176.00;107777;1281;74925;-84
2022/06/04 01:33:11;;;;;;;3.10;1.30;;;;;;;12.98;68.22;101173.52;107905;1280;73222;-84
2022/06/04 01:35:56;;;;;;;2.00;1.30;;;;;;;12.96;67.82;101180.38;107968;1279;72763;-84
2022/06/04 01:38:40;;;;;;;1.90;1.30;;;;;;;12.94;67.75;101179.57;107933;1280;63257;-84
2022/06/04 01:41:22;;;;;;;3.20;1.00;;;;;;;12.91;67.59;101175.25;107889;1279;61894;-83
2022/06/04 01:44:00;;;;;;;3.20;1.20;;;;;;;12.89;67.39;101174.64;107973;1279;75444;-85
2022/06/04 01:46:33;;;;;;;2.90;1.30;;;;;;;12.86;67.10;101171.97;107978;1279;71780;-85
2022/06/04 01:49:09;;;;;;;2.80;1.30;;;;;;;12.84;67.14;101178.51;107699;1281;74543;-84
2022/06/04 01:51:37;;;;;;;2.00;1.10;;;;;;;12.82;66.93;101186.56;107885;1281;62495;-85
2022/06/04 01:54:22;;;;;;;2.00;1.30;;;;;;;12.80;66.81;101191.11;108058;1280;60667;-85
2022/06/04 01:57:04;;;;;;;1.60;1.10;;;;;;;12.78;66.85;101190.30;107940;1279;74124;-84
2022/06/04 01:59:41;;;;;;;1.90;1.00;;;;;;;12.75;66.87;101187.61;108128;1278;71380;-84
2022/06/04 02:02:13;;;;;;;2.20;1.10;;;;;;;12.72;66.80;101188.84;108123;1279;73439;-84
2022/06/04 02:04:47;;;;;;;1.60;0.90;;;;;;;12.70;66.82;101193.84;108062;1281;61962;-85
2022/06/04 02:07:32;;;;;;;4.20;1.30;;;;;;;12.67;66.59;101194.00;108006;1280;60587;-84
2022/06/04 02:10:24;;;;;;;3.60;1.40;;;;;;;12.64;66.70;101195.95;108055;1279;74660;-84
2022/06/04 02:12:55;;;;;;;3.10;1.20;;;;;;;12.61;66.84;101194.38;107574;1281;72407;-83
2022/06/04 02:15:28;;;;;;;2.90;1.30;;;;;;;12.57;66.50;101196.26;107749;1281;74041;-82
2022/06/04 02:17:57;;;;;;;1.80;1.20;;;;;;;12.53;66.60;101201.35;107934;1280;62215;-83
2022/06/04 02:20:28;;;;;;;1.20;0.80;;;;;;;12.49;66.66;101205.45;107918;1280;62050;-83
2022/06/04 02:22:56;;;;;;;2.00;1.70;;;;;;;12.45;66.91;101209.27;107796;1281;75883;-83
2022/06/04 02:25:23;;;;;;;4.40;1.20;;;;;;;12.41;66.83;101210.27;107880;1280;71208;-84
2022/06/04 02:27:52;;;;;;;2.70;1.10;;;;;;;12.37;66.82;101208.58;107825;1280;71965;-82
2022/06/04 02:30:21;;;;;;;4.90;1.60;;;;;;;12.33;66.75;101211.69;107916;1279;63357;-83
2022/06/04 02:33:13;;;;;;;2.20;1.60;;;;;;;12.29;66.81;101217.36;108025;1280;61997;-83
2022/06/04 02:35:59;;;;;;;1.90;1.10;;;;;;;12.24;67.34;101225.09;107632;1280;76832;-83
2022/06/04 02:38:38;;;;;;;1.90;1.20;;;;;;;12.19;67.54;101225.32;107903;1279;71509;-84
2022/06/04 02:41:34;;;;;;;4.50;1.50;;;;;;;12.14;67.85;101229.98;107952;1279;72937;-84
2022/06/04 02:44:09;;;;;;;3.10;1.20;;;;;;;12.07;67.95;101225.76;108034;1279;61402;-84
2022/06/04 02:46:50;;;;;;;2.50;1.20;;;;;;;12.01;67.93;101221.45;108051;1279;61026;-83
2022/06/04 02:49:28;;;;;;;2.40;1.50;;;;;;;11.96;67.92;101222.94;107984;1280;74699;-84
2022/06/04 02:51:55;;;;;;;2.90;1.40;;;;;;;11.92;68.01;101228.77;108003;1279;71422;-84
2022/06/04 02:54:27;;;;;;;3.50;1.40;;;;;;;11.88;68.00;101235.16;107984;1279;72647;-84
2022/06/04 02:56:56;;;;;;;2.70;1.10;;;;;;;11.83;67.99;101235.83;107577;1281;63307;-83
2022/06/04 02:59:25;;;;;;;2.80;1.30;;;;;;;11.80;68.12;101234.08;107927;1279;60453;-84
2022/06/04 03:01:54;;;;;;;2.80;2.00;;;;;;;11.75;68.06;101233.59;107885;1281;75006;-85
2022/06/04 03:04:43;;;;;;;3.40;1.80;;;;;;;11.71;68.26;101235.98;108004;1279;70339;-83
2022/06/04 03:07:12;;;;;;;3.10;1.30;;;;;;;11.67;68.32;101238.75;107873;1281;72221;-83
2022/06/04 03:09:39;;;;;;;3.70;1.20;;;;;;;11.63;68.40;101235.96;108001;1281;60967;-84
2022/06/04 03:12:11;;;;;;;3.30;1.50;;;;;;;11.60;68.47;101235.20;107957;1280;60913;-83
2022/06/04 03:14:38;;;;;;;2.60;1.20;;;;;;;11.57;68.60;101232.19;107833;1280;75108;-83
2022/06/04 03:17:19;;;;;;;4.50;1.50;;;;;;;11.54;68.65;101227.58;107943;1279;71681;-83
2022/06/04 03:19:46;;;;;;;2.40;1.50;;;;;;;11.51;68.75;101227.89;107963;1280;72952;-84
2022/06/04 03:22:22;;;;;;;3.20;1.30;;;;;;;11.49;68.80;101229.74;107953;1281;60878;-84
2022/06/04 03:24:49;;;;;;;3.10;1.30;;;;;;;11.46;69.04;101234.83;107968;1280;59352;-84
2022/06/04 03:27:18;;;;;;;2.60;1.50;;;;;;;11.42;69.12;101236.39;107811;1279;75068;-84
2022/06/04 03:30:05;;;;;;;1.90;1.30;;;;;;;11.40;69.22;101235.46;107965;1279;70474;-84
2022/06/04 03:32:39;;;;;;;3.00;1.50;;;;;;;11.38;69.38;101237.42;107773;1281;74425;-84
2022/06/04 03:35:07;;;;;;;2.50;1.30;;;;;;;11.36;69.64;101238.86;107994;1280;62873;-84
2022/06/04 03:37:34;;;;;;;4.30;1.60;;;;;;;11.35;69.87;101242.30;107882;1280;60390;-84
2022/06/04 03:40:03;;;;;;;4.30;1.80;;;;;;;11.35;70.01;101246.27;107861;1281;76283;-83
2022/06/04 03:42:30;;;;;;;1.90;1.70;;;;;;;11.34;70.41;101245.95;107649;1281;71370;-83
2022/06/04 03:45:00;;;;;;;3.70;2.30;;;;;;;11.35;70.79;101246.10;107970;1280;73041;-83
2022/06/04 03:47:27;;;;;;;3.20;1.70;;;;;;;11.36;70.82;101244.77;108027;1280;62166;-84
2022/06/04 03:49:57;;;;;;;3.50;1.80;;;;;;;11.36;70.91;101234.93;107786;1281;60739;-84
2022/06/04 03:52:24;;;;;;;3.20;1.70;;;;;;;11.39;70.81;101239.29;107685;1281;75014;-83
2022/06/04 03:54:54;;;;;;;2.80;1.80;;;;;;;11.41;70.68;101239.26;107970;1281;72555;-84
2022/06/04 03:57:42;;;;;;;3.10;1.60;;;;;;;11.43;70.75;101238.42;107939;1279;72734;-83
2022/06/04 04:00:12;;;;;;;4.70;2.00;;;;;;;11.47;70.76;101236.52;107937;1280;62301;-83
2022/06/04 04:02:41;;;;;;;2.30;1.70;;;;;;;11.48;70.67;101240.09;107961;1279;61536;-83
2022/06/04 04:05:13;;;;;;;2.90;1.80;;;;;;;11.52;70.87;101243.95;107745;1281;75860;-84
2022/06/04 04:07:57;;;;;;;2.80;1.50;;;;;;;11.54;70.84;101243.52;107831;1279;71409;-83
2022/06/04 04:10:27;;;;;;;2.70;1.60;;;;;;;11.57;70.75;101237.80;107743;1281;73133;-82
2022/06/04 04:12:54;;;;;;;2.50;1.80;;;;;;;11.62;70.62;101234.27;107922;1280;62444;-84
2022/06/04 04:15:46;;;;;;;3.20;1.90;;;;;;;11.68;70.57;101234.57;108059;1279;60722;-83
2022/06/04 04:18:13;;;;;;;2.40;1.50;;;;;;;11.75;70.44;101239.98;108228;1280;75406;-84
2022/06/04 04:20:45;;;;;;;2.10;1.70;;;;;;;11.80;70.17;101240.30;108000;1280;71489;-83
2022/06/04 04:23:12;;;;;;;3.20;1.80;;;;;;;11.83;69.83;101245.44;108103;1279;72886;-84
2022/06/04 04:25:39;;;;;;;2.50;1.80;;;;;;;11.86;69.84;101242.87;107909;1280;63085;-84
2022/06/04 04:28:21;;;;;;;3.60;1.90;;;;;;;11.89;69.54;101250.73;107799;1281;60370;-83
2022/06/04 04:30:48;;;;;;;3.30;1.80;;;;;;;11.92;69.52;101244.65;107978;1281;76287;-84
2022/06/04 04:33:18;;;;;;;3.50;1.80;;;;;;;11.96;69.47;101230.91;108012;1279;71457;-84
2022/06/04 04:35:46;;;;;;;3.40;1.50;;;;;;;12.04;69.19;101227.60;107992;1280;74075;-86
2022/06/04 04:38:17;;;;;;;2.80;1.40;;;;;;;12.09;69.29;101229.44;107782;1281;63481;-84
2022/06/04 04:40:45;;;;;;;2.50;1.60;;;;;;;12.15;69.07;101229.31;107691;1281;62002;-84
2022/06/04 04:43:12;;;;;;;3.10;1.80;;;;;;;12.21;68.67;101230.62;107986;1279;76201;-84
2022/06/04 04:45:39;;;;;;;3.20;1.40;;;;;;;12.29;68.42;101230.10;108070;1279;71400;-83
2022/06/04 04:48:06;;;;;;;2.80;1.60;;;;;;;12.38;67.95;101227.45;107898;1281;73961;-85
2022/06/04 04:50:37;;;;;;;2.20;1.40;;;;;;;12.51;67.70;101230.66;107928;1278;62340;-84
2022/06/04 04:53:09;;;;;;;2.70;1.50;;;;;;;12.62;66.97;101225.14;107944;1280;60727;-84
2022/06/04 04:55:36;;;;;;;2.60;1.50;;;;;;;12.73;66.57;101229.20;107987;1280;76115;-84
2022/06/04 04:58:03;;;;;;;3.00;1.30;;;;;;;12.84;66.17;101232.56;108025;1279;72373;-84
2022/06/04 05:00:30;;;;;;;2.20;1.60;;;;;;;12.93;65.95;101236.77;107575;1281;74209;-84
2022/06/04 05:02:58;;;;;;;2.10;1.70;;;;;;;13.02;65.35;101242.85;107979;1280;62379;-84
2022/06/04 05:05:26;;;;;;;2.10;1.40;;;;;;;13.10;64.67;101249.91;107819;1279;61617;-85
2022/06/04 05:07:52;;;;;;;2.10;1.40;;;;;;;13.20;64.31;101252.83;107665;1280;74079;-85
2022/06/04 05:10:21;;;;;;;2.00;1.20;;;;;;;13.30;64.31;101251.18;107986;1280;73503;-84
2022/06/04 05:12:56;;;;;;;4.20;1.30;;;;;;;13.41;63.96;101251.63;107965;1280;73117;-84
2022/06/04 05:15:23;;;;;;;2.10;1.60;;;;;;;13.53;63.69;101249.07;108040;1279;62274;-84
2022/06/04 05:17:50;;;;;;;3.60;1.80;;;;;;;13.65;63.55;101250.85;107887;1281;60675;-85
2022/06/04 05:20:17;;;;;;;3.70;1.50;;;;;;;13.78;63.01;101243.58;108066;1279;76021;-84
2022/06/04 05:22:44;;;;;;;4.70;1.30;;;;;;;13.90;62.70;101247.36;107813;1281;72685;-86
2022/06/04 05:25:15;;;;;;;1.80;1.20;;;;;;;14.01;62.09;101241.93;107881;1281;73962;-84
2022/06/04 05:27:41;;;;;;;5.20;1.20;;;;;;;14.09;61.64;101239.52;107786;1281;60861;-84
2022/06/04 05:30:12;;;;;;;1.50;1.00;;;;;;;14.18;61.25;101245.20;108023;1279;61679;-86
2022/06/04 05:32:39;;;;;;;2.30;1.10;;;;;;;14.24;60.45;101247.20;107979;1280;75340;-86
2022/06/04 05:35:06;;;;;;;1.90;1.20;;;;;;;14.32;60.54;101237.91;108028;1281;70052;-84
2022/06/04 05:37:32;;;;;;;1.80;1.20;;;;;;;14.43;60.50;101236.93;107992;1280;73194;-84
2022/06/04 05:40:04;;;;;;;1.70;1.00;;;;;;;14.52;60.42;101247.48;108086;1279;61648;-83
2022/06/04 05:42:30;;;;;;;2.80;1.30;;;;;;;14.66;60.37;101256.84;108011;1280;61695;-83
2022/06/04 05:44:58;;;;;;;1.40;0.90;;;;;;;14.82;60.05;101255.29;107728;1281;76770;-84
2022/06/04 05:47:25;;;;;;;2.10;1.50;;;;;;;14.98;59.45;101254.84;108027;1280;70625;-84
2022/06/04 05:49:51;;;;;;;1.70;1.20;;;;;;;15.16;58.79;101260.30;108010;1280;72837;-84
2022/06/04 05:52:20;;;;;;;3.00;1.60;;;;;;;15.30;58.61;101263.40;107802;1281;59905;-84
2022/06/04 05:54:47;;;;;;;2.70;1.30;;;;;;;15.45;58.44;101264.35;107953;1280;60600;-85
2022/06/04 05:57:18;;;;;;;5.10;1.50;;;;;;;15.57;57.56;101263.94;108043;1280;75374;-85
2022/06/04 05:59:45;;;;;;;1.80;1.00;;;;;;;15.67;56.87;101264.10;108040;1281;72415;-86
2022/06/04 06:02:11;;;;;;;1.80;1.10;;;;;;;15.77;57.15;101266.05;108071;1281;72678;-83
2022/06/04 06:04:38;;;;;;;3.40;1.40;;;;;;;15.87;56.67;101269.58;108265;1280;60845;-84
2022/06/04 06:07:05;;;;;;;2.40;1.40;;;;;;;16.01;56.72;101273.09;108344;1281;61983;-84
2022/06/04 06:09:32;;;;;;;2.50;1.20;;;;;;;16.12;56.15;101280.93;108412;1280;77005;-83
2022/06/04 06:11:59;;;;;;;2.30;1.00;;;;;;;16.23;55.93;101283.42;108408;1280;71956;-83
2022/06/04 06:14:26;;;;;;;1.80;1.20;;;;;;;16.37;55.76;101288.02;108234;1281;72980;-83
2022/06/04 06:16:53;;;;;;;2.40;1.30;;;;;;;16.50;55.40;101287.80;107949;1281;60697;-83
2022/06/04 06:19:25;;;;;;;1.60;1.00;;;;;;;16.59;54.96;101292.25;108018;1281;60780;-83
2022/06/04 06:21:52;;;;;;;3.90;1.30;;;;;;;16.65;54.74;101300.27;108005;1280;74751;-81
2022/06/04 06:24:23;;;;;;;1.90;1.10;;;;;;;16.69;54.31;101299.77;107745;1281;72371;-82
2022/06/04 06:26:55;;;;;;;1.50;1.10;;;;;;;16.74;54.29;101300.96;107931;1280;72879;-83
2022/06/04 06:29:26;;;;;;;3.10;1.10;;;;;;;16.79;53.82;101301.52;107815;1280;61193;-83
2022/06/04 06:31:54;;;;;;;1.80;0.80;;;;;;;16.81;52.92;101311.84;107866;1281;60581;-83
2022/06/04 06:34:22;;;;;;;1.70;1.10;;;;;;;16.84;52.76;101314.28;107971;1280;74604;-82
2022/06/04 06:36:49;;;;;;;3.50;1.00;;;;;;;16.89;53.14;101317.90;107996;1280;71415;-83
2022/06/04 06:39:16;;;;;;;1.50;1.00;;;;;;;16.94;52.71;101321.37;107871;1281;73532;-83
2022/06/04 06:41:42;;;;;;;4.60;1.30;;;;;;;16.98;52.58;101319.03;107713;1281;63056;-83
2022/06/04 06:44:12;;;;;;;2.20;0.80;;;;;;;17.04;52.42;101323.04;107810;1280;61611;-83
2022/06/04 06:46:44;;;;;;;2.40;0.80;;;;;;;17.08;51.52;101326.10;107889;1281;74982;-83
2022/06/04 06:49:19;;;;;;;1.90;1.00;;;;;;;17.13;51.44;101322.90;108009;1280;71873;-83
2022/06/04 06:51:53;;;;;;;1.00;0.70;;;;;;;17.18;50.73;101323.11;107843;1281;72599;-82
2022/06/04 06:54:23;;;;;;;4.10;1.00;;;;;;;17.19;50.86;101327.73;107966;1280;62106;-82
2022/06/04 06:56:51;;;;;;;3.50;1.00;;;;;;;17.21;50.89;101331.58;107984;1279;60720;-81
2022/06/04 06:59:24;;;;;;;1.30;1.00;;;;;;;17.29;50.78;101338.27;108003;1279;75611;-81
2022/06/04 07:01:52;;;;;;;4.90;1.70;;;;;;;17.43;50.67;101351.84;107735;1281;71638;-82
2022/06/04 07:04:21;;;;;;;2.60;1.00;;;;;;;17.57;50.12;101349.50;108046;1281;74106;-81
2022/06/04 07:06:51;;;;;;;1.40;0.90;;;;;;;17.68;49.71;101356.20;108053;1279;60419;-81
2022/06/04 07:09:21;;;;;;;2.70;1.00;;;;;;;17.79;49.33;101355.86;107923;1279;60741;-81
2022/06/04 07:11:48;;;;;;;1.40;0.90;;;;;;;17.82;48.56;101357.37;107867;1281;75095;-82
2022/06/04 07:14:15;;;;;;;3.00;0.90;;;;;;;17.89;48.48;101360.83;107799;1281;72480;-82
2022/06/04 07:16:42;;;;;;;1.50;0.90;;;;;;;17.95;48.78;101360.67;107994;1281;73232;-81
2022/06/04 07:19:13;;;;;;;1.40;0.80;;;;;;;17.94;48.32;101363.66;107894;1281;60498;-81
2022/06/04 07:21:40;;;;;;;1.40;0.70;;;;;;;18.05;48.51;101368.60;107874;1281;61246;-81
2022/06/04 07:24:07;;;;;;;2.00;1.10;;;;;;;18.17;48.33;101361.12;107999;1281;75112;-81
2022/06/04 07:26:35;;;;;;;2.20;0.80;;;;;;;18.31;47.87;101356.42;107830;1281;73065;-81
2022/06/04 07:29:03;;;;;;;1.70;0.90;;;;;;;18.45;47.50;101345.52;107941;1280;73006;-81
2022/06/04 07:31:31;;;;;;;2.20;0.80;;;;;;;18.59;47.80;101343.45;107980;1281;61324;-81
2022/06/04 07:33:58;;;;;;;1.00;0.60;;;;;;;18.67;47.28;101341.23;107977;1280;62085;-81
2022/06/04 07:36:34;;;;;;;1.70;1.00;;;;;;;18.69;46.39;101344.36;107798;1281;76077;-81
2022/06/04 07:39:02;;;;;;;2.10;1.00;;;;;;;18.74;47.02;101347.77;107895;1281;72463;-81
2022/06/04 07:41:35;;;;;;;1.70;0.80;;;;;;;18.80;46.20;101348.40;108034;1280;74116;-82
2022/06/04 07:44:02;;;;;;;4.40;1.10;;;;;;;18.81;46.13;101352.73;108028;1279;60755;-81
2022/06/04 07:46:30;;;;;;;1.30;0.80;;;;;;;18.85;46.20;101352.34;107639;1281;60594;-81
2022/06/04 07:49:03;;;;;;;2.00;0.90;;;;;;;18.93;46.14;101350.04;107785;1282;74760;-82
2022/06/04 07:51:32;;;;;;;4.60;1.10;;;;;;;18.97;45.71;101346.91;108014;1280;71367;-81
2022/06/04 07:54:00;;;;;;;1.50;0.70;;;;;;;19.04;45.81;101340.77;108371;1279;72159;-81
2022/06/04 07:56:27;;;;;;;1.50;0.90;;;;;;;19.14;46.33;101338.80;108001;1280;59129;-81
2022/06/04 07:58:54;;;;;;;4.00;1.10;;;;;;;19.26;46.00;101338.39;107943;1280;61018;-81
2022/06/04 08:01:22;;;;;;;2.80;1.10;;;;;;;19.36;46.10;101334.16;108035;1279;76016;-81
2022/06/04 08:03:51;;;;;;;2.70;1.20;;;;;;;19.46;45.86;101332.33;107710;1281;71381;-81
2022/06/04 08:06:18;;;;;;;2.70;1.00;;;;;;;19.60;45.79;101329.04;107996;1279;73980;-81
2022/06/04 08:08:47;;;;;;;5.60;0.90;;;;;;;19.74;45.30;101329.77;107948;1280;62146;-81
2022/06/04 08:11:32;;;;;;;2.60;0.90;;;;;;;19.84;45.15;101331.98;107983;1280;61832;-81
2022/06/04 08:14:11;;;;;;;3.00;0.80;;;;;;;19.95;44.89;101330.50;107814;1281;74057;-80
2022/06/04 08:16:40;;;;;;;1.50;0.70;;;;;;;20.09;44.39;101330.13;107965;1279;71408;-81
2022/06/04 08:19:08;;;;;;;2.00;1.10;;;;;;;20.18;44.46;101336.15;107595;1281;73002;-81
2022/06/04 08:21:36;;;;;;;2.10;0.80;;;;;;;20.32;44.38;101337.88;107803;1281;60641;-81
2022/06/04 08:24:03;;;;;;;2.60;1.00;;;;;;;20.48;43.93;101341.48;107857;1281;61505;-81
2022/06/04 08:26:30;;;;;;;2.70;1.00;;;;;;;20.61;43.41;101344.98;107914;1279;75005;-80
2022/06/04 08:28:57;;;;;;;1.70;0.90;;;;;;;20.72;43.16;101345.58;107839;1281;71849;-81
2022/06/04 08:31:24;;;;;;;2.60;1.00;;;;;;;20.84;43.22;101341.52;108001;1279;74296;-83
2022/06/04 08:33:50;;;;;;;3.10;1.00;;;;;;;21.00;43.16;101345.21;107792;1281;62062;-85
2022/06/04 08:36:17;;;;;;;3.70;1.00;;;;;;;21.17;42.73;101344.85;107957;1280;60791;-83
2022/06/04 08:38:44;;;;;;;2.70;0.90;;;;;;;21.28;42.02;101339.25;107988;1280;76111;-83
2022/06/04 08:41:33;;;;;;;2.00;0.90;;;;;;;21.41;42.37;101341.16;108061;1279;72633;-83
2022/06/04 08:44:09;;;;;;;3.50;0.90;;;;;;;21.53;41.61;101342.02;108047;1279;74177;-83
2022/06/04 08:46:42;;;;;;;2.20;0.90;;;;;;;21.59;41.38;101340.21;107892;1281;60644;-82
2022/06/04 08:49:14;;;;;;;1.70;0.80;;;;;;;21.69;42.02;101339.59;108077;1280;62110;-83
2022/06/04 08:51:44;;;;;;;1.90;0.50;;;;;;;21.85;42.16;101337.71;108053;1279;76003;-83
2022/06/04 09:00:16;;;;;;;2.00;1.00;;;;;;;22.39;40.99;101337.32;108195;1279;60686;-83
2022/06/04 09:03:00;;;;;;;2.10;0.90;;;;;;;22.56;41.16;101331.98;108027;1280;60569;-83
2022/06/04 09:05:33;;;;;;;1.70;0.90;;;;;;;22.72;40.16;101340.80;107951;1281;73682;-82
2022/06/04 09:08:05;;;;;;;1.90;0.80;;;;;;;22.79;39.69;101339.55;108066;1279;71031;-83
2022/06/04 09:10:48;;;;;;;2.30;1.00;;;;;;;22.78;39.45;101343.30;107964;1281;71898;-83
2022/06/04 09:13:24;;;;;;;3.20;1.10;;;;;;;22.79;39.87;101340.50;107926;1280;60668;-82
2022/06/04 09:16:07;;;;;;;1.60;1.00;;;;;;;22.79;39.93;101344.95;108069;1279;61706;-82
2022/06/04 09:18:35;;;;;;;1.80;0.90;;;;;;;22.76;40.02;101347.39;108198;1279;74638;-82
2022/06/04 09:21:09;;;;;;;1.50;0.80;;;;;;;22.82;40.09;101350.18;107958;1281;72249;-82
2022/06/04 09:23:36;;;;;;;2.50;0.80;;;;;;;22.86;39.80;101353.19;108079;1281;74982;-82
2022/06/04 09:26:12;;;;;;;1.40;1.00;;;;;;;22.97;39.53;101352.66;108095;1280;60474;-81
2022/06/04 09:29:04;;;;;;;3.00;1.00;;;;;;;23.06;39.57;101351.11;108027;1281;59220;-81
2022/06/04 09:31:58;;;;;;;2.20;0.90;;;;;;;23.08;39.49;101353.05;108162;1279;76137;-82
2022/06/04 09:34:35;;;;;;;1.40;1.00;;;;;;;23.18;39.71;101358.36;107386;1281;660968;-82
2022/06/04 09:37:05;;;;;;;1.80;1.00;;;;;;;23.31;39.36;101361.58;108107;1279;72970;-83
2022/06/04 09:39:34;;;;;;;3.30;1.00;;;;;;;23.43;39.19;101362.27;107953;1279;60641;-83
2022/06/04 09:42:02;;;;;;;1.60;0.90;;;;;;;23.60;39.28;101360.52;107985;1281;60631;-82
2022/06/04 09:44:31;;;;;;;1.60;0.80;;;;;;;23.70;38.87;101353.29;108087;1279;76535;-82
2022/06/04 09:47:08;;;;;;;2.30;1.00;;;;;;;23.81;38.88;101353.11;108106;1279;71122;-82
2022/06/04 09:49:34;;;;;;;2.10;0.90;;;;;;;23.96;39.09;101352.35;107852;1280;74181;-82
2022/06/04 09:52:29;;;;;;;3.00;0.90;;;;;;;24.06;38.08;101357.00;108053;1279;61162;-85
2022/06/04 09:54:58;;;;;;;;;;;;;;;24.08;38.46;101360.94;107869;1281;60577;-85
2022/06/04 09:57:27;;;;;;;2.50;1.00;;;;;;;24.13;37.88;101361.88;107979;1281;76322;-85
2022/06/04 09:59:56;;;;;;;2.90;1.00;;;;;;;24.27;37.80;101357.95;108130;1279;71461;-85
2022/06/04 10:02:24;;;;;;;1.60;1.00;;;;;;;24.39;36.97;101358.16;107952;1280;72293;-84
2022/06/04 10:05:00;;;;;;;1.60;0.90;;;;;;;24.48;36.64;101358.84;107839;1281;60515;-84
2022/06/04 10:07:36;;;;;;;2.30;0.90;;;;;;;24.57;37.16;101362.11;107933;1279;60580;-85
2022/06/04 10:10:33;;;;;;;1.50;1.10;;;;;;;24.68;37.30;101362.25;108006;1281;76953;-85
2022/06/04 10:16:40;;;;;;;2.00;1.10;;;;;;;24.65;36.87;101357.70;107760;1280;75409;-85
2022/06/04 10:19:22;;;;;;;3.10;1.10;;;;;;;24.69;37.02;101351.40;107733;1281;61371;-84
2022/06/04 10:22:02;;;;;;;1.40;0.80;;;;;;;24.87;37.49;101351.99;107772;1281;61758;-85
2022/06/04 10:24:47;;;;;;;2.60;1.00;;;;;;;25.13;36.93;101354.39;108063;1279;76124;-85
2022/06/04 10:27:38;;;;;;;2.50;0.80;;;;;;;25.31;36.56;101356.15;107986;1280;72668;-85
2022/06/04 10:30:05;;;;;;;1.50;0.90;;;;;;;25.50;36.68;101353.66;108082;1280;73067;-84
2022/06/04 10:33:09;;;;;;;1.70;1.00;;;;;;;25.52;35.08;101353.68;108054;1279;60117;-84
2022/06/04 10:35:41;;;;;;;1.70;1.10;;;;;;;25.45;35.67;101357.32;107943;1281;61086;-85
2022/06/04 10:38:18;;;;;;;3.60;1.20;;;;;;;25.37;34.99;101358.83;107788;1280;75016;-84
2022/06/04 10:41:06;;;;;;;1.40;0.90;;;;;;;25.29;35.27;101355.05;108067;1279;71319;-84
2022/06/04 10:44:21;;;;;;;3.00;1.10;;;;;;;25.18;34.72;101354.29;107948;1280;72917;-84
2022/06/04 10:47:15;;;;;;;2.70;1.00;;;;;;;25.19;35.44;101362.48;107757;1280;60839;-84
2022/06/04 10:50:18;;;;;;;2.60;1.20;;;;;;;25.33;35.39;101358.23;107889;1281;60667;-84
2022/06/04 10:52:51;;;;;;;2.00;0.80;;;;;;;25.48;35.99;101355.38;108576;1280;75110;-85
2022/06/04 10:55:20;;;;;;;2.20;1.00;;;;;;;25.57;35.48;101352.80;108520;1280;73569;-85
2022/06/04 10:58:23;;;;;;;1.70;1.00;;;;;;;25.70;35.64;101355.83;108566;1280;73783;-85
2022/06/04 11:01:20;;;;;;;1.20;0.80;;;;;;;25.86;34.96;101354.54;108583;1280;59735;-84
2022/06/04 11:04:27;;;;;;;1.50;0.90;;;;;;;26.03;36.37;101351.24;108509;1279;61060;-84
2022/06/04 11:07:16;;;;;;;1.80;0.90;;;;;;;26.24;35.20;101353.16;107783;1280;73763;-84
2022/06/04 11:09:44;;;;;;;1.40;0.90;;;;;;;26.43;34.90;101352.39;108085;1281;73667;-84
2022/06/04 11:12:20;;;;;;;2.30;0.90;;;;;;;26.60;34.48;101345.95;108030;1280;72974;-84
2022/06/04 11:14:51;;;;;;;3.70;1.00;;;;;;;26.74;34.23;101345.77;108189;1279;59704;-85
2022/06/04 11:17:23;;;;;;;1.30;0.90;;;;;;;26.94;33.83;101352.74;107607;1281;61470;-85
2022/06/04 11:19:52;;;;;;;2.20;0.90;;;;;;;26.94;32.84;101353.84;108041;1279;72602;-83
2022/06/04 11:22:34;;;;;;;1.90;0.80;;;;;;;26.98;33.22;101355.69;107974;1279;72440;-85
2022/06/04 11:25:06;;;;;;;2.20;1.00;;;;;;;27.14;32.21;101351.31;108048;1280;74175;-84
2022/06/04 11:27:43;;;;;;;1.40;1.10;;;;;;;27.27;33.09;101347.80;108057;1280;60307;-83
2022/06/04 11:30:16;;;;;;;2.20;1.20;;;;;;;27.45;32.81;101348.42;107930;1279;60682;-83
2022/06/04 11:32:59;;;;;;;3.20;1.00;;;;;;;27.58;32.10;101343.95;107750;1281;74887;-83
2022/06/04 11:35:42;;;;;;;1.90;1.10;;;;;;;27.70;33.00;101331.67;107654;1281;72370;-83
2022/06/04 11:38:26;;;;;;;1.70;1.00;;;;;;;27.99;32.63;101330.83;107977;1280;73571;-84
2022/06/04 11:41:02;;;;;;;1.40;0.90;;;;;;;28.13;32.27;101334.63;107825;1281;60046;-83
2022/06/04 11:43:59;;;;;;;3.10;1.20;;;;;;;28.26;31.93;101335.29;108029;1280;61566;-83
2022/06/04 11:46:25;;;;;;;2.40;1.10;;;;;;;28.42;31.31;101335.42;107985;1279;75029;-84
2022/06/04 11:49:22;;;;;;;2.00;1.00;;;;;;;28.53;31.84;101335.77;108035;1279;59120;-83
2022/06/04 11:52:02;;;;;;;1.20;0.90;;;;;;;28.94;31.54;101338.96;108022;1279;74267;-84
2022/06/04 11:54:52;;;;;;;2.90;1.10;;;;;;;29.32;30.71;101338.55;108064;1279;61081;-84
2022/06/04 11:57:34;;;;;;;2.00;1.20;;;;;;;29.46;29.43;101337.55;108076;1280;60362;-83
2022/06/04 12:00:23;;;;;;;2.50;1.10;;;;;;;29.49;29.58;101331.46;108123;1280;76791;-84
2022/06/04 12:03:02;;;;;;;2.70;1.20;;;;;;;29.59;30.12;101336.79;107924;1281;72014;-84
2022/06/04 12:05:35;;;;;;;1.90;0.80;;;;;;;29.69;30.07;101341.48;107971;1281;73706;-83